Flight Track Log - Related Links

Times and Time Zones

All times are in EDT time to prevent confusion due to time zone crossing. See the N900TG flight status page for this flight to view local times or setup timezone preferences in your user account.


Time Position Orientation Groundspeed Altitude Reporting Facility
EDT Latitude Longitude Course Direction KTS MPH feet Rate Location/Type
Mon 12:37:46 PM 44.5144 -120.0028 281° West 232 267 10,900  Level Seattle Center
Mon 12:38:47 PM 44.5356 -120.1089 286° West 276 318 13,400 2,607 Climbing Seattle Center
Mon 12:39:48 PM 44.5578 -120.2308 284° West 312 359 16,200 2,683 Climbing Seattle Center
Mon 12:40:50 PM 44.5806 -120.3583 284° West 331 381 18,900 1,854 Climbing Seattle Center
Mon 12:41:51 PM 44.6033 -120.4822 285° West 349 402 20,000 541 Climbing Seattle Center
Mon 12:42:52 PM 44.6328 -120.6478 284° West 367 422 20,000  Level Seattle Center
Mon 12:43:00 PM 44.6143 -120.5324 281° West  Level FlightAware Approximate
Mon 12:43:53 PM 44.6561 -120.7756 284° West 383 441 20,000  Level Seattle Center
Mon 12:44:54 PM 44.6886 -120.9200 288° West 386 444 20,000  Level Seattle Center
Mon 12:45:55 PM 44.7331 -121.0592 294° West 389 448 20,000  Level Seattle Center
Mon 12:46:56 PM 44.7761 -121.1994 293° West 390 449 20,000  Level Seattle Center
Mon 12:47:58 PM 44.8283 -121.3656 294° West 388 447 20,000 -488 Level Seattle Center
Mon 12:48:59 PM 44.8703 -121.5025 293° West 383 441 19,000 -1,377 Descending Seattle Center
Mon 12:50:00 PM 44.9097 -121.6336 293° West 370 426 17,200 -1,967 Descending Seattle Center
Mon 12:51:01 PM 44.9497 -121.7653 293° West 366 421 15,000 -2,296 Descending Seattle Center
Mon 12:51:21 PM 44.9647 -121.8194 291° West 360 414 14,100 -1,967 Descending Seattle Center
Mon 12:52:02 PM 44.9889 -121.8911 296° West 354 407 13,000 -2,118 Descending Seattle Center
Mon 12:53:03 PM 45.0289 -122.0200 294° West 343 395 10,500 -1,721 Descending Seattle Center
Mon 12:54:04 PM 45.0586 -122.1231 292° West 302 348 9,500 -1,426 Descending Seattle Center
Mon 12:55:05 PM 45.0861 -122.2158 293° West 262 302 7,600 -1,415 Descending Seattle Center
Mon 12:56:07 PM 45.1136 -122.3150 291° West 265 305 6,600 -738 Descending Seattle Center
Mon 12:57:07 PM 45.1436 -122.4192 292° West 268 308 6,100 -787 Descending Seattle Center
Mon 12:58:09 PM 45.1700 -122.5042 294° West 264 304 5,000 -1,220 Descending Seattle Center
Mon 12:59:10 PM 45.1797 -122.6053 278° West 263 303 3,600 -1,475 Descending Seattle Center
Mon 01:00:11 PM 45.1883 -122.7122 277° West 255 293 2,000 -1,574 Descending Seattle Center

Login

Don't have an account? Register now (free) for customized features, flight alerts, and more!